Terminal Aerodrome Forecast
Issued by NWS

Current Version | Previous Version | Text Only | Print | Product List | Glossary On
Versions: 1 2 3 4 5 6 7 8 9 10 11 12 13 14 15 16
624
FTUS43 KIND 132320
TAFBMG
TAF
KBMG 132320Z 1400/1424 VRB02KT P6SM FEW050 BKN200
     FM140600 09004KT P6SM SCT050 OVC080
     FM141200 11009KT 3SM -SN BR OVC020
     FM141700 13013KT 1/2SM SN FZFG OVC007
     FM142200 14010KT 4SM -SHSN BR OVC009
      AMD LTD TO CLD VIS AND WIND 1402/1414=

USA.gov is the U.S. government's official web portal to all federal, state and local government web resources and services.